Rechercher aéroport 
image banner adimage banner adimage banner ad
image banner ad

2NV8 - Mercy Air-Pahrump

Situé à Pahrump, United States

ICAO - 2NV8, IATA -

Données fournies par Airmate  

Information générale

Coordonnées: N36°11'31" W115°59'9"
Élévation : 2650 feet MSL.
 
Voir autres Aéroports à Nevada

Données opérationnelles

Special qualification required
Heure actuelle UTC:
Heure actuelle locale:
Météo à : KINS - Creech Afb ( 52 km )
METAR: KINS 270556Z AUTO 25004KT 10SM CLR 24/18 A3007 RMK AO2 SLP137 T02390183 10284 20235 50009 $
TAF: TAF KINS 270457Z 2705/2811 23009KT 9999 SCT060 QNH3005INS BECMG 2717/2718 11009KT 9999 FEW070 QNH3006INS BECMG 2720/2721 12010G18KT 9999 SCT100 QNH2999INS SHRA OMTNS TIL 2800 BECMG 2800/2801 22012KT 9999 SCT100 QNH2999INS BECMG 2805/2806 VRB06KT 9999 SCT250 QNH3006INS TX37/2722Z TN22/2712Z
Voir NOTAMs / SUP AIP / TFR affectant cet aéroport [VIEW]
Fréquences de communication: [VIEW]

Pistes:

Coordonnées de l'aéroport

Adresse: Pahrump United States

Vue satellite de 2NV8